Whidbey Island Naval Air Station /Ault Field/ Airport
KNUW : rendu visible

Aérodrome :











RETROUVEZ-NOUS SUR...

 
LOGIN :

S'inscrire | Disclaimer

   EN    FR    IT 

 









Légende :    VFR   VFR Marginal   IFR   IFR Intensif   IFR Très Intensif
Visi : 
Plafond : 
>= 8 km
>= 3000ft
5 à 8 km
1000 à 3000 ft
1500m à 5 km
500 à 1000 ft
800 à 1500m
200 à 500 ft
< 800m
< 200 ft
Symboles :   Orages  Brouillard  Fortes neiges  Fortes précipitations  Vent > 20 kt






- Altitude de l'aérodrome : 47 ft


KNUW - Whidbey Island Naval Air Station /Ault Field/

DERNIER METAR :
  • 290556Z VRB03KT 10SM SCT013 OVC020 12/07 A2984 RMK AO2 SLP104 T01170067 10139 20111 58004

METARs EXPIRÉS :
  • 290456Z 26005KT 10SM SCT013 OVC020 12/07 A2985 RMK AO2 SLP107 T01170067
  • 290356Z 18015G22KT 10SM OVC017 13/07 A2985 RMK AO2 SLP108 T01280072

TAF TAF KNUW
Valide du 28 à 23h jusqu'au 29 à 23h UTC


2823/2923 15020G30KT 9999 VCSH BKN020 BKN060 OVC100 640509 641404 540004 QNH2979INS
TEMPO 2823/2904 15014G24KT 9999 -RA SCT020 BKN060 OVC100
BECMG 2904/2905 15015G24KT 9999 -RA FEW008 BKN020 OVC060 640509 641404 500000 QNH2976INS
FM290800 16012KT 9000 -RA BR SCT008 OVC020 640509 641404 QNH2974INS
TEMPO 2908/2914 16013G21KT 6000 -RA BR BKN008 OVC020
FM291500 17012KT 9999 -RA SCT020 BKN030 640409 641305 QNH2979INS T07/2913Z T14/2923Z FS30164



MET'MAP, la Météo Aéronautique d'un coup d'oeil ! - Copyright ORBIFLY Décembre 2007 - Disclaimer

ORBIFLY MET'MAP TEAM :

Programmation & Développement : Alexandra Zaïnal
Sur une idée originale de : Baudouin d'Aumeries
Assistance à la programmation : Marc-Olivier Méhu
Soutien technique & logistique : Manuel Goepfert

Contact : metmap@orbifly.com




SOURCES & CREDITS :

   NOAA       Earth
Advisory